createdAt,value
2018-02-05T00:02:05.382Z,15.73
2018-02-05T00:04:32.975Z,18.07
2018-02-05T00:07:00.523Z,16.83
2018-02-05T00:09:28.877Z,17.77
2018-02-05T00:11:56.430Z,19.17
2018-02-05T00:14:23.995Z,17.42
2018-02-05T00:16:51.558Z,16.87
2018-02-05T00:19:19.142Z,14.97
2018-02-05T00:21:47.454Z,13.47
2018-02-05T00:24:15.026Z,15.67
2018-02-05T00:26:42.580Z,16.33
2018-02-05T00:29:10.146Z,17.27
2018-02-05T00:31:37.703Z,14.80
2018-02-05T00:34:05.290Z,17.60
2018-02-05T00:36:32.841Z,16.30
2018-02-05T00:39:00.419Z,16.85
2018-02-05T00:41:27.973Z,16.10
2018-02-05T00:43:55.534Z,17.13
2018-02-05T00:46:23.093Z,18.58
2018-02-05T00:48:50.694Z,21.52
2018-02-05T00:51:18.247Z,24.05
2018-02-05T00:53:46.578Z,22.50
2018-02-05T00:56:14.902Z,22.58
2018-02-05T00:58:43.241Z,21.35
2018-02-05T01:01:10.795Z,20.00
2018-02-05T01:03:38.339Z,18.37
2018-02-05T01:06:05.902Z,21.92
2018-02-05T01:08:33.456Z,20.42
2018-02-05T01:11:01.022Z,23.02
2018-02-05T01:13:28.571Z,25.40
2018-02-05T01:15:56.135Z,22.20
2018-02-05T01:18:23.683Z,22.15
2018-02-05T01:20:51.247Z,22.98
2018-02-05T01:23:18.793Z,19.25
2018-02-05T01:25:46.363Z,16.27
2018-02-05T01:28:13.910Z,17.75
2018-02-05T01:30:41.477Z,15.47
2018-02-05T01:33:09.030Z,17.33
2018-02-05T01:35:36.594Z,16.45
2018-02-05T01:38:04.140Z,15.60
2018-02-05T01:40:32.473Z,16.30
2018-02-05T01:43:00.030Z,19.67
2018-02-05T01:45:27.606Z,14.00
2018-02-05T01:47:55.151Z,15.85
2018-02-05T01:50:22.726Z,15.07
2018-02-05T01:52:50.270Z,17.10
2018-02-05T01:55:17.830Z,15.27
2018-02-05T01:57:45.368Z,12.32
2018-02-05T02:00:12.921Z,10.77
2018-02-05T02:02:40.518Z,14.07
2018-02-05T02:05:08.079Z,12.73
2018-02-05T02:07:35.668Z,15.20
2018-02-05T02:10:04.010Z,14.00
2018-02-05T02:12:31.559Z,13.90
2018-02-05T02:14:59.119Z,16.70
2018-02-05T02:17:26.658Z,14.87
2018-02-05T02:19:54.225Z,14.77
2018-02-05T02:22:21.767Z,12.23
2018-02-05T02:24:49.355Z,13.87
2018-02-05T02:27:16.906Z,15.30
2018-02-05T02:29:44.473Z,15.73
2018-02-05T02:32:12.025Z,15.05
2018-02-05T02:34:39.584Z,11.10
2018-02-05T02:37:07.130Z,19.00
2018-02-05T02:39:34.707Z,13.70
2018-02-05T02:42:02.279Z,14.20
2018-02-05T02:44:29.818Z,15.52
2018-02-05T02:46:57.388Z,13.70
2018-02-05T02:49:24.932Z,13.67
2018-02-05T02:51:52.511Z,14.57
2018-02-05T02:54:20.051Z,12.33
2018-02-05T02:56:47.628Z,13.15
2018-02-05T02:59:15.925Z,13.27
2018-02-05T03:01:43.489Z,14.00
2018-02-05T03:04:11.793Z,13.70
2018-02-05T03:06:39.354Z,16.63
2018-02-05T03:09:07.677Z,13.45
2018-02-05T03:11:35.258Z,13.43
2018-02-05T03:14:02.808Z,15.55
2018-02-05T03:16:30.384Z,14.15
2018-02-05T03:18:57.923Z,15.53
2018-02-05T03:21:25.497Z,15.93
2018-02-05T03:23:53.021Z,11.67
2018-02-05T03:26:20.585Z,14.70
2018-02-05T03:28:48.126Z,14.70
2018-02-05T03:31:16.454Z,17.42
2018-02-05T03:33:43.998Z,15.30
2018-02-05T03:36:11.562Z,15.90
2018-02-05T03:38:39.097Z,19.83
2018-02-05T03:41:06.666Z,18.70
2018-02-05T03:43:34.213Z,20.07
2018-02-05T03:46:01.754Z,23.83
2018-02-05T03:48:30.091Z,22.70
2018-02-05T03:50:57.627Z,20.37
2018-02-05T03:53:25.199Z,21.17
2018-02-05T03:55:52.737Z,21.00
2018-02-05T03:58:20.294Z,23.30
2018-02-05T04:00:47.833Z,23.83
2018-02-05T04:03:16.166Z,18.95
2018-02-05T04:05:43.704Z,25.30
2018-02-05T04:08:11.290Z,20.70
2018-02-05T04:10:38.839Z,20.48
2018-02-05T04:13:06.402Z,24.87
2018-02-05T04:15:33.939Z,17.70
2018-02-05T04:18:01.508Z,26.33
2018-02-05T04:20:29.037Z,22.30
2018-02-05T04:22:57.363Z,27.00
2018-02-05T04:25:32.136Z,27.60
2018-02-05T04:28:00.623Z,30.40
2018-02-05T04:30:28.920Z,27.90
2018-02-05T04:32:56.484Z,30.50
2018-02-05T04:35:24.037Z,27.20
2018-02-05T04:37:51.602Z,24.87
2018-02-05T04:40:19.145Z,29.48
2018-02-05T04:42:46.709Z,31.20
2018-02-05T04:45:14.251Z,35.40
2018-02-05T04:47:42.565Z,29.83
2018-02-05T04:50:10.133Z,29.70
2018-02-05T04:52:37.674Z,28.70
2018-02-05T04:55:05.238Z,32.42
2018-02-05T04:57:32.775Z,31.23
2018-02-05T05:00:01.093Z,30.63
2018-02-05T05:02:28.634Z,35.03
2018-02-05T05:04:56.197Z,30.37
2018-02-05T05:07:23.738Z,29.70
2018-02-05T05:09:52.058Z,28.73
2018-02-05T05:12:19.606Z,28.70
2018-02-05T05:14:47.165Z,29.10
2018-02-05T05:17:14.707Z,30.10
2018-02-05T05:19:42.268Z,28.83
2018-02-05T05:22:09.804Z,30.57
2018-02-05T05:24:38.156Z,30.37
2018-02-05T05:27:05.694Z,28.30
2018-02-05T05:29:33.991Z,32.20
2018-02-05T05:32:01.550Z,27.90
2018-02-05T05:34:29.083Z,28.67
2018-02-05T05:36:56.643Z,28.33
2018-02-05T05:39:24.186Z,34.10
2018-02-05T05:41:52.099Z,29.00
2018-02-05T05:44:19.691Z,27.52
2018-02-05T05:46:48.058Z,32.30
2018-02-05T05:49:16.366Z,29.00
2018-02-05T05:51:44.077Z,25.10
2018-02-05T05:54:12.413Z,25.23
2018-02-05T05:56:40.033Z,30.00
2018-02-05T05:59:07.693Z,26.27
2018-02-05T06:01:35.338Z,25.50
2018-02-05T06:04:02.874Z,29.07
2018-02-05T06:06:30.428Z,25.07
2018-02-05T06:08:57.974Z,25.70
2018-02-05T06:11:25.563Z,25.73
2018-02-05T06:13:53.100Z,30.17
2018-02-05T06:16:20.763Z,26.07
2018-02-05T06:18:48.297Z,28.93
2018-02-05T06:21:16.621Z,24.23
2018-02-05T06:23:44.149Z,26.93
2018-02-05T06:26:11.713Z,29.77
2018-02-05T06:28:39.253Z,26.73
2018-02-05T06:52:34.082Z,30.80
2018-02-05T06:55:26.179Z,29.63
2018-02-05T06:57:53.754Z,32.85
2018-02-05T07:00:21.292Z,27.60
2018-02-05T07:02:48.859Z,29.60
2018-02-05T07:05:16.406Z,27.43
2018-02-05T07:07:43.966Z,30.07
2018-02-05T07:10:11.506Z,29.57
2018-02-05T07:12:39.063Z,26.70
2018-02-05T07:15:06.663Z,23.57
2018-02-05T07:17:34.191Z,27.10
2018-02-05T07:20:01.731Z,24.30
2018-02-05T07:22:30.055Z,27.17
2018-02-05T07:24:57.597Z,21.63
2018-02-05T07:27:25.157Z,24.63
2018-02-05T07:29:52.705Z,28.73
2018-02-05T07:32:20.283Z,26.90
2018-02-05T07:34:47.832Z,23.77
2018-02-05T07:37:15.396Z,25.37
2018-02-05T07:39:42.934Z,22.10
2018-02-05T07:42:10.497Z,30.67
2018-02-05T07:44:38.040Z,24.20
2018-02-05T07:47:06.371Z,28.00
2018-02-05T07:49:33.918Z,25.40
2018-02-05T07:52:01.474Z,26.07
2018-02-05T07:54:29.011Z,21.70
2018-02-05T07:56:56.578Z,25.48
2018-02-05T07:59:24.119Z,23.67
2018-02-05T08:01:51.698Z,20.90
2018-02-05T08:04:19.257Z,21.37
2018-02-05T08:06:46.841Z,23.40
2018-02-05T08:09:14.375Z,23.45
2018-02-05T08:11:41.941Z,18.73
2018-02-05T08:14:09.474Z,22.93
2018-02-05T08:16:37.815Z,22.70
2018-02-05T08:19:05.350Z,21.50
2018-02-05T08:21:32.926Z,18.35
2018-02-05T08:24:01.231Z,23.03
2018-02-05T08:26:28.786Z,21.87
2018-02-05T08:28:56.314Z,19.53
2018-02-05T08:31:23.869Z,19.70
2018-02-05T08:33:51.412Z,21.17
2018-02-05T08:36:18.981Z,24.80
2018-02-05T08:38:46.567Z,23.77
2018-02-05T08:41:14.138Z,22.03
2018-02-05T08:43:41.681Z,21.27
2018-02-05T08:46:09.246Z,19.13
2018-02-05T08:48:36.811Z,24.40
2018-02-05T08:51:04.346Z,18.70
2018-02-05T08:53:31.912Z,20.40
2018-02-05T08:55:59.455Z,19.43
2018-02-05T08:58:27.014Z,23.20
2018-02-05T09:00:54.547Z,19.27
2018-02-05T09:03:22.878Z,20.37
2018-02-05T09:05:50.411Z,25.37
2018-02-05T09:08:17.979Z,20.12
2018-02-05T09:10:45.524Z,21.33
2018-02-05T09:13:13.081Z,27.50
2018-02-05T09:15:40.626Z,25.98
2018-02-05T09:18:08.958Z,24.87
2018-02-05T09:20:36.491Z,20.30
2018-02-05T09:23:04.038Z,25.60
2018-02-05T09:25:31.574Z,20.30
2018-02-05T09:27:59.898Z,23.90
2018-02-05T09:30:27.431Z,26.03
2018-02-05T09:32:54.998Z,23.98
2018-02-05T09:35:22.540Z,22.73
2018-02-05T09:37:50.858Z,20.87
2018-02-05T09:40:18.397Z,22.98
2018-02-05T09:42:45.952Z,18.40
2018-02-05T09:45:13.479Z,18.40
2018-02-05T09:47:41.802Z,20.77
2018-02-05T09:50:09.337Z,26.20
2018-02-05T09:52:37.657Z,23.67
2018-02-05T09:55:05.185Z,21.33
2018-02-05T09:57:32.748Z,18.67
2018-02-05T10:00:00.281Z,20.60
2018-02-05T10:02:28.606Z,25.33
2018-02-05T10:04:56.136Z,23.80
2018-02-05T10:07:23.694Z,19.13
2018-02-05T10:09:51.982Z,21.00
2018-02-05T10:12:19.546Z,19.70
2018-02-05T10:14:47.071Z,25.17
2018-02-05T10:17:15.393Z,19.90
2018-02-05T10:19:42.919Z,19.30
2018-02-05T10:22:11.243Z,22.77
2018-02-05T10:24:38.778Z,20.83
2018-02-05T10:27:06.335Z,22.83
2018-02-05T10:29:33.870Z,17.77
2018-02-05T10:32:02.200Z,21.07
2018-02-05T10:34:29.733Z,23.37
2018-02-05T10:36:57.283Z,20.40
2018-02-05T10:39:24.813Z,21.80
2018-02-05T10:41:52.378Z,22.83
2018-02-05T10:44:19.897Z,21.70
2018-02-05T10:46:47.459Z,18.50
2018-02-05T10:49:15.749Z,17.27
2018-02-05T10:51:43.302Z,18.93
2018-02-05T10:54:10.838Z,20.07
2018-02-05T10:56:38.371Z,18.70
2018-02-05T10:59:05.923Z,20.67
2018-02-05T11:01:34.219Z,17.17
2018-02-05T11:04:01.778Z,22.03
2018-02-05T11:06:29.301Z,20.67
2018-02-05T11:08:57.066Z,20.00
2018-02-05T11:11:24.593Z,21.13
2018-02-05T11:13:52.151Z,24.30
2018-02-05T11:16:19.678Z,19.27
2018-02-05T11:18:47.238Z,18.13
2018-02-05T11:21:14.769Z,22.80
2018-02-05T11:23:43.085Z,19.43
2018-02-05T11:26:10.614Z,21.47
2018-02-05T11:28:38.950Z,20.97
2018-02-05T11:31:06.485Z,22.07
2018-02-05T11:33:34.042Z,17.73
2018-02-05T11:36:01.577Z,17.67
2018-02-05T11:38:29.903Z,20.73
2018-02-05T11:40:57.421Z,20.33
2018-02-05T11:43:25.738Z,20.57
2018-02-05T11:45:53.269Z,18.23
2018-02-05T11:48:20.827Z,21.90
2018-02-05T11:50:48.371Z,17.53
2018-02-05T11:53:16.694Z,18.00
2018-02-05T11:55:44.229Z,18.10
2018-02-05T11:58:11.783Z,21.13
2018-02-05T12:00:39.309Z,16.03
2018-02-05T12:03:09.904Z,21.33
2018-02-05T12:05:37.436Z,23.03
2018-02-05T12:08:05.213Z,18.50
2018-02-05T12:10:32.744Z,18.87
2018-02-05T12:13:01.065Z,17.90
2018-02-05T12:15:28.593Z,17.97
2018-02-05T12:17:56.155Z,19.43
2018-02-05T12:20:23.681Z,19.90
2018-02-05T12:22:51.263Z,21.07
2018-02-05T12:25:19.555Z,19.43
2018-02-05T12:27:47.110Z,20.90
2018-02-05T12:30:14.637Z,21.47
2018-02-05T12:32:42.194Z,19.70
2018-02-05T12:35:09.729Z,24.03
2018-02-05T12:37:37.283Z,20.83
2018-02-05T12:40:04.842Z,16.30
2018-02-05T12:42:32.402Z,15.00
2018-02-05T12:44:59.931Z,19.80
2018-02-05T12:47:27.480Z,20.57
2018-02-05T12:49:55.017Z,18.73
2018-02-05T12:52:22.577Z,18.60
2018-02-05T12:54:50.888Z,18.63
2018-02-05T12:57:18.468Z,24.73
2018-02-05T12:59:51.619Z,15.47
2018-02-05T13:02:34.838Z,18.17
2018-02-05T13:05:03.153Z,26.47
2018-02-05T13:07:30.732Z,15.57
2018-02-05T13:09:58.262Z,19.87
2018-02-05T13:12:25.820Z,15.77
2018-02-05T13:14:53.356Z,18.93
2018-02-05T13:17:21.679Z,18.10
2018-02-05T13:19:49.202Z,19.37
2018-02-05T13:22:17.528Z,15.00
2018-02-05T13:24:45.055Z,14.90
2018-02-05T13:27:12.610Z,15.23
2018-02-05T13:29:40.164Z,19.50
2018-02-05T13:32:07.706Z,16.97
2018-02-05T13:34:36.035Z,16.47
2018-02-05T13:37:03.570Z,17.30
2018-02-05T13:39:31.127Z,15.90
2018-02-05T13:41:58.666Z,21.60
2018-02-05T13:44:26.994Z,16.03
2018-02-05T13:46:54.526Z,18.00
2018-02-05T13:49:22.092Z,17.83
2018-02-05T13:51:49.626Z,16.83
2018-02-05T13:54:17.954Z,17.00
2018-02-05T13:56:45.487Z,19.40
2018-02-05T13:59:13.053Z,16.30
2018-02-05T14:01:40.586Z,15.27
2018-02-05T14:04:08.911Z,16.17
2018-02-05T14:06:36.454Z,16.57
2018-02-05T14:09:04.010Z,13.20
2018-02-05T14:11:31.553Z,17.07
2018-02-05T14:13:59.113Z,15.73
2018-02-05T14:16:26.646Z,14.30
2018-02-05T14:21:54.087Z,16.73
2018-02-05T14:24:21.659Z,18.10
2018-02-05T14:26:49.195Z,15.07
2018-02-05T14:29:16.751Z,20.03
2018-02-05T14:31:44.284Z,17.17
2018-02-05T14:34:11.843Z,14.67
2018-02-05T14:36:40.142Z,15.80
2018-02-05T14:39:07.704Z,17.30
2018-02-05T14:41:35.229Z,13.13
2018-02-05T14:44:03.542Z,13.13
2018-02-05T14:46:31.071Z,16.30
2018-02-05T14:48:59.378Z,15.03
2018-02-05T14:51:26.915Z,16.50
2018-02-05T14:53:54.486Z,14.43
2018-02-05T14:56:22.031Z,14.50
2018-02-05T14:58:49.595Z,13.73
2018-02-05T15:01:17.125Z,12.73
2018-02-05T15:03:44.689Z,14.13
2018-02-05T15:06:12.223Z,15.23
2018-02-05T15:08:39.782Z,16.33
2018-02-05T15:11:07.323Z,16.10
2018-02-05T15:13:34.875Z,14.33
2018-02-05T15:16:02.410Z,14.03
2018-02-05T15:18:29.966Z,14.80
2018-02-05T15:20:57.507Z,15.23
2018-02-05T15:23:25.070Z,14.27
2018-02-05T15:25:53.377Z,14.23
2018-02-05T15:28:20.942Z,16.03
2018-02-05T15:30:48.478Z,15.33
2018-02-05T15:33:16.803Z,12.63
2018-02-05T15:35:44.322Z,12.83
2018-02-05T15:38:12.633Z,15.00
2018-02-05T15:40:40.163Z,14.07
2018-02-05T15:43:07.720Z,17.87
2018-02-05T15:45:35.260Z,15.63
2018-02-05T15:48:03.590Z,18.13
2018-02-05T15:50:31.118Z,12.40
2018-02-05T15:52:58.673Z,15.10
2018-02-05T15:55:26.964Z,15.53
2018-02-05T15:57:54.532Z,17.47
2018-02-05T16:00:22.057Z,11.07
2018-02-05T16:02:50.357Z,15.47
2018-02-05T16:05:17.916Z,16.37
2018-02-05T16:07:45.458Z,14.40
2018-02-05T16:10:13.773Z,12.93
2018-02-05T16:12:41.358Z,17.80
2018-02-05T16:15:08.912Z,13.37
2018-02-05T16:17:36.447Z,14.37
2018-02-05T16:20:03.997Z,17.53
2018-02-05T16:22:31.533Z,13.40
2018-02-05T16:24:59.869Z,16.90
2018-02-05T16:27:28.174Z,15.27
2018-02-05T16:29:55.731Z,16.40
2018-02-05T16:32:23.262Z,13.07
2018-02-05T16:34:50.809Z,11.87
2018-02-05T16:37:18.351Z,18.20
2018-02-05T16:39:45.911Z,13.50
2018-02-05T16:42:13.438Z,11.60
2018-02-05T16:44:41.762Z,14.43
2018-02-05T16:47:09.295Z,15.87
2018-02-05T16:49:36.851Z,15.47
2018-02-05T16:52:04.391Z,13.57
2018-02-05T16:54:32.708Z,15.57
2018-02-05T16:57:00.240Z,15.80
2018-02-05T16:59:28.553Z,14.20
2018-02-05T17:01:56.091Z,14.30
2018-02-05T17:04:23.648Z,12.93
2018-02-05T17:06:51.948Z,16.03
2018-02-05T17:09:19.522Z,11.00
2018-02-05T17:11:47.068Z,15.13
2018-02-05T17:14:14.633Z,15.17
2018-02-05T17:16:42.166Z,11.30
2018-02-05T17:19:09.717Z,12.23
2018-02-05T17:21:37.253Z,17.27
2018-02-05T17:24:04.805Z,14.93
2018-02-05T17:26:32.330Z,17.50
2018-02-05T17:28:59.885Z,22.40
2018-02-05T17:31:27.415Z,11.37
2018-02-05T17:33:55.737Z,14.00
2018-02-05T17:36:24.025Z,13.53
2018-02-05T17:38:51.554Z,16.33
2018-02-05T17:41:19.150Z,17.27
2018-02-05T17:43:46.687Z,14.20
2018-02-05T17:46:14.239Z,11.20
2018-02-05T17:48:41.775Z,15.27
2018-02-05T17:51:09.322Z,13.07
2018-02-05T17:53:37.628Z,14.20
2018-02-05T17:56:05.195Z,16.97
2018-02-05T17:58:32.733Z,11.63
2018-02-05T18:01:00.289Z,15.40
2018-02-05T18:03:27.858Z,16.23
2018-02-05T18:05:55.415Z,17.40
2018-02-05T18:08:22.945Z,16.30
2018-02-05T18:10:51.262Z,14.80
2018-02-05T18:13:18.802Z,18.00
2018-02-05T18:15:46.369Z,14.10
2018-02-05T18:18:13.902Z,14.90
2018-02-05T18:20:41.434Z,16.80
2018-02-05T18:23:08.990Z,14.13
2018-02-05T18:25:36.517Z,15.13
2018-02-05T18:28:04.088Z,14.40
2018-02-05T18:30:31.610Z,13.07
2018-02-05T18:32:59.933Z,14.63
2018-02-05T18:35:27.466Z,17.73
2018-02-05T18:37:55.028Z,14.60
2018-02-05T18:40:22.573Z,15.23
2018-02-05T18:42:50.905Z,18.40
2018-02-05T18:45:18.442Z,13.00
2018-02-05T18:47:45.990Z,16.17
2018-02-05T18:50:13.521Z,18.17
2018-02-05T18:52:41.854Z,13.77
2018-02-05T18:55:09.388Z,15.57
2018-02-05T18:57:36.946Z,18.23
2018-02-05T19:00:16.236Z,16.47
2018-02-05T19:02:43.801Z,14.87
2018-02-05T19:05:11.336Z,18.33
2018-02-05T19:07:39.646Z,18.77
2018-02-05T19:10:07.970Z,18.63
2018-02-05T19:12:35.505Z,16.60
2018-02-05T19:15:03.091Z,17.70
2018-02-05T19:17:31.390Z,13.90
2018-02-05T19:19:58.958Z,15.23
2018-02-05T19:22:26.505Z,18.57
2018-02-05T19:24:54.070Z,16.10
2018-02-05T19:27:21.618Z,14.65
2018-02-05T19:29:49.186Z,19.13
2018-02-05T19:32:16.730Z,19.30
2018-02-05T19:34:44.286Z,17.47
2018-02-05T19:37:11.821Z,17.87
2018-02-05T19:39:39.378Z,21.87
2018-02-05T19:42:06.926Z,20.17
2018-02-05T19:44:35.257Z,23.87
2018-02-05T19:47:02.811Z,18.50
2018-02-05T19:49:30.379Z,27.13
2018-02-05T19:51:57.914Z,18.65
2018-02-05T19:54:25.495Z,17.13
2018-02-05T19:56:53.034Z,21.03
2018-02-05T19:59:20.591Z,20.30
2018-02-05T20:01:48.141Z,20.48
2018-02-05T20:04:16.297Z,20.20
2018-02-05T20:06:44.628Z,17.60
2018-02-05T20:09:12.980Z,17.53
2018-02-05T20:11:40.534Z,19.03
2018-02-05T20:14:08.104Z,20.23
2018-02-05T20:16:36.416Z,20.77
2018-02-05T20:19:04.006Z,20.48
2018-02-05T20:21:32.301Z,22.40
2018-02-05T20:23:59.921Z,18.23
2018-02-05T20:26:27.470Z,19.73
2018-02-05T20:28:55.032Z,23.50
2018-02-05T20:31:22.571Z,14.50
2018-02-05T20:33:50.162Z,26.30
2018-02-05T20:36:17.714Z,21.23
2018-02-05T20:38:45.297Z,22.30
2018-02-05T20:41:13.602Z,22.10
2018-02-05T20:43:41.179Z,20.52
2018-02-05T20:46:08.744Z,25.27
2018-02-05T20:48:36.318Z,22.40
2018-02-05T20:51:04.631Z,22.08
2018-02-05T20:53:32.975Z,20.47
2018-02-05T20:56:00.530Z,23.23
2018-02-05T20:58:28.135Z,25.90
2018-02-05T21:00:56.486Z,19.90
2018-02-05T21:03:24.058Z,20.53
2018-02-05T21:05:51.601Z,21.10
2018-02-05T21:08:19.170Z,22.83
2018-02-05T21:10:46.733Z,23.42
2018-02-05T21:13:14.306Z,24.35
2018-02-05T21:15:42.650Z,19.48
2018-02-05T21:18:10.300Z,19.90
2018-02-05T21:20:37.872Z,19.73
2018-02-05T21:23:05.428Z,20.07
2018-02-05T21:25:33.003Z,24.70
2018-02-05T21:28:00.546Z,18.70
2018-02-05T21:30:28.125Z,20.07
2018-02-05T21:32:55.680Z,22.98
2018-02-05T21:35:23.248Z,22.13
2018-02-05T21:37:50.794Z,19.53
2018-02-05T21:40:18.403Z,18.80
2018-02-05T21:42:46.718Z,18.60
2018-02-05T21:45:14.444Z,23.00
2018-02-05T21:47:42.746Z,19.90
2018-02-05T21:50:10.323Z,18.47
2018-02-05T21:52:38.651Z,22.10
2018-02-05T21:55:06.990Z,23.00
2018-02-05T21:57:34.533Z,18.58
2018-02-05T22:00:02.111Z,17.90
2018-02-05T22:02:29.654Z,19.62
2018-02-05T22:04:57.213Z,21.20
2018-02-05T22:07:24.754Z,19.23
2018-02-05T22:09:52.315Z,24.63
2018-02-05T22:12:19.858Z,18.10
2018-02-05T22:14:48.194Z,24.77
2018-02-05T22:17:15.733Z,20.70
2018-02-05T22:19:43.294Z,21.23
2018-02-05T22:22:10.832Z,18.90
2018-02-05T22:24:38.404Z,20.15
2018-02-05T22:27:05.968Z,17.70
2018-02-05T22:29:33.534Z,20.40
2018-02-05T22:32:01.083Z,18.87
2018-02-05T22:34:28.661Z,21.77
2018-02-05T22:36:56.225Z,19.87
2018-02-05T22:39:23.803Z,22.75
2018-02-05T22:41:51.350Z,17.98
2018-02-05T22:44:18.933Z,18.60
2018-02-05T22:46:46.490Z,19.05
2018-02-05T22:49:14.066Z,19.58
2018-02-05T22:51:42.386Z,16.90
2018-02-05T22:54:09.969Z,18.52
2018-02-05T22:56:37.547Z,19.20
2018-02-05T22:59:05.137Z,20.83
2018-02-05T23:01:32.689Z,21.33
2018-02-05T23:04:01.050Z,19.25
2018-02-05T23:06:28.603Z,18.67
2018-02-05T23:08:56.165Z,21.62
2018-02-05T23:11:23.713Z,22.10
2018-02-05T23:13:51.290Z,18.48
2018-02-05T23:16:18.855Z,18.97
2018-02-05T23:18:46.418Z,18.40
2018-02-05T23:21:14.739Z,18.83
2018-02-05T23:23:42.290Z,23.80
2018-02-05T23:26:09.864Z,17.35
2018-02-05T23:28:37.411Z,17.05
2018-02-05T23:31:04.973Z,19.55
2018-02-05T23:33:32.529Z,20.37
2018-02-05T23:36:00.107Z,18.23
2018-02-05T23:38:27.652Z,19.62
2018-02-05T23:40:55.211Z,16.58
2018-02-05T23:43:22.751Z,21.00
2018-02-05T23:45:50.334Z,20.13
2018-02-05T23:48:17.883Z,16.42
2018-02-05T23:50:45.459Z,21.73
2018-02-05T23:53:13.010Z,18.00
2018-02-05T23:55:40.577Z,19.87
2018-02-05T23:58:08.129Z,19.97
